Magothy — WDE5803 — position and weather

sailwx.info

Track history (hours):
 
Tides and Currents Weather Stations Pressure Air Temp Water Temp Dewpoint Dewpoint Depression Visibility Wind Speed Wind Dir Waves Ship Positions

Magothy

Owner: Vane Line Bunkering, Inc., Philadelphia, PA. More information available from US FCC via Universal Licensing System and Coast Guard Vessel Documentation Center.

Last reported at 2017-Nov-24 07:00 UTC. Time now 2017-Nov-24 07:26 UTC.
Position N 40°40' W 074°03'.

Length 33 m; draft 5 m.

Type: Towing. MMSI: 367371810.

Date/timePositionNaut miles runAvg speedWind from/ knotsBaromVisibWave heightAir tempDewpointWater temp
2017-Nov-24 07:00N 40°40' W 074°03'1 1.1
2017-Nov-24 06:30N 40°40' W 074°03'2 3.0
2017-Nov-24 06:00N 40°38' W 074°04'3 5.7
2017-Nov-24 05:30N 40°41' W 074°02'1 2.7
2017-Nov-24 05:00N 40°41' W 074°00'1 2.8
2017-Nov-24 04:30N 40°40' W 074°01'1 1.5
2017-Nov-24 04:00N 40°40' W 074°00'3 6.3
2017-Nov-24 03:30N 40°38' W 074°04'1 1.0
2017-Nov-24 03:00N 40°39' W 074°04'2 3.3
2017-Nov-24 02:30N 40°40' W 074°03'0 0.0
2017-Nov-24 02:00N 40°40' W 074°03'0 0.0
2017-Nov-24 01:30N 40°40' W 074°03'0 0.0
2017-Nov-24 01:00N 40°40' W 074°03'0 0.2
2017-Nov-24 00:30N 40°40' W 074°03'4 7.3
2017-Nov-24 00:00N 40°39' W 074°07'3 5.1
2017-Nov-23 23:30N 40°41' W 074°09'0 0.6
2017-Nov-23 23:00N 40°41' W 074°09'0 0.0
2017-Nov-23 22:29N 40°41' W 074°09'2 4.4
2017-Nov-23 22:00N 40°39' W 074°09'2 3.7
2017-Nov-23 21:30N 40°39' W 074°07'0 0.0
2017-Nov-23 21:00N 40°39' W 074°07'1 1.1
2017-Nov-23 20:28N 40°39' W 074°06'0 0.0
2017-Nov-23 20:01N 40°39' W 074°06'0 0.8
2017-Nov-23 19:30N 40°39' W 074°05'0 0.1
2017-Nov-23 19:00N 40°39' W 074°05'0 0.0
2017-Nov-23 18:29N 40°39' W 074°05'1 2.7
2017-Nov-23 17:59N 40°40' W 074°04'0 0.9
2017-Nov-23 17:30N 40°40' W 074°05'0 0.0
2017-Nov-23 16:57N 40°40' W 074°05'0 0.0
2017-Nov-23 16:30N 40°40' W 074°05'0 0.0
2017-Nov-23 16:00N 40°40' W 074°05'2 3.9
2017-Nov-23 15:30N 40°40' W 074°02'1 2.6
2017-Nov-23 15:00N 40°40' W 074°00'0 0.0
2017-Nov-23 14:30N 40°40' W 074°00'0 0.0
2017-Nov-23 14:00N 40°40' W 074°00'0 0.0
2017-Nov-23 13:30N 40°40' W 074°00'0 0.1
2017-Nov-23 13:00N 40°40' W 074°00'0 0.0
2017-Nov-23 12:30N 40°40' W 074°00'0 0.0
2017-Nov-23 12:00N 40°40' W 074°00'0 0.5
2017-Nov-23 11:28N 40°40' W 074°00'0 0.0
2017-Nov-23 10:59N 40°40' W 074°00'0 0.0
2017-Nov-23 10:28N 40°40' W 074°00'0 0.1
2017-Nov-23 09:56N 40°40' W 074°00'0 0.1
2017-Nov-23 09:28N 40°40' W 074°00'0 0.0
2017-Nov-23 08:58N 40°40' W 074°00'0 0.0
2017-Nov-23 08:28N 40°40' W 074°00'0 0.0
2017-Nov-23 07:58N 40°40' W 074°00'0 0.0
2017-Nov-23 07:29N 40°40' W 074°00'0 0.0
2017-Nov-23 06:58N 40°40' W 074°00'0 0.0
2017-Nov-23 06:28N 40°40' W 074°00'0 0.0
2017-Nov-23 05:58N 40°40' W 074°00'0 0.0
2017-Nov-23 05:28N 40°40' W 074°00'0 0.0
2017-Nov-23 04:58N 40°40' W 074°00'0 0.0
2017-Nov-23 04:28N 40°40' W 074°00'0 0.0
2017-Nov-23 03:58N 40°40' W 074°00'0 0.0
2017-Nov-23 03:28N 40°40' W 074°00'0 0.0
2017-Nov-23 02:58N 40°40' W 074°00'0 0.0
2017-Nov-23 02:28N 40°40' W 074°00'1 2.3
2017-Nov-23 02:00N 40°41' W 074°01'1 1.6
2017-Nov-23 01:30N 40°41' W 074°00'0 0.0
2017-Nov-23 01:00N 40°41' W 074°00'0 0.0
2017-Nov-23 00:30N 40°41' W 074°00'1 0.9
2017-Nov-22 23:58N 40°41' W 074°01'1 2.4
2017-Nov-22 23:28N 40°40' W 074°00'0 0.7
2017-Nov-22 22:59N 40°40' W 074°00'0 0.0
2017-Nov-22 22:29N 40°40' W 074°00'0 0.0
2017-Nov-22 21:56N 40°40' W 074°00'0 0.0
2017-Nov-22 21:29N 40°40' W 074°00'0 0.0
2017-Nov-22 20:59N 40°40' W 074°00'0 0.0
2017-Nov-22 20:29N 40°40' W 074°00'0 0.0
2017-Nov-22 19:59N 40°40' W 074°00'0 0.0
2017-Nov-22 19:29N 40°40' W 074°00'  
2017-Nov-18 09:22N 40°50' W 073°47'3 7.2
2017-Nov-18 09:00N 40°48' W 073°50'4 8.0
2017-Nov-18 08:29N 40°47' W 073°55'3 5.9
2017-Nov-18 08:01N 40°45' W 073°58'3 5.8
2017-Nov-18 07:30N 40°42' W 073°59'3 5.4
2017-Nov-18 07:00N 40°41' W 074°02'2 4.9
2017-Nov-18 06:30N 40°39' W 074°03'0 0.1
2017-Nov-18 06:00N 40°38' W 074°03'1 1.3
2017-Nov-18 05:30N 40°39' W 074°04'4 7.1
2017-Nov-18 05:00N 40°39' W 074°08'3 5.3
2017-Nov-18 04:30N 40°38' W 074°12'2 4.1
2017-Nov-18 04:00N 40°36' W 074°12'1 2.0
2017-Nov-18 03:29N 40°35' W 074°13'1 0.1
2017-Nov-17 20:55N 40°36' W 074°12'2 4.6
2017-Nov-17 20:29N 40°38' W 074°12'3 6.6
2017-Nov-17 20:00N 40°39' W 074°08'4 8.9
2017-Nov-17 19:30N 40°39' W 074°02'2 4.0
2017-Nov-17 19:00N 40°40' W 074°00'0 0.1
2017-Nov-17 18:30N 40°40' W 074°00'1 1.8
2017-Nov-17 18:00N 40°40' W 074°01'3 5.8
2017-Nov-17 17:30N 40°40' W 074°05'2 3.4
2017-Nov-17 17:00N 40°40' W 074°03'2 3.4
2017-Nov-17 16:30N 40°40' W 074°05'0 0.0
2017-Nov-17 16:00N 40°40' W 074°05'1 2.6
2017-Nov-17 15:30N 40°39' W 074°05'2 3.4
2017-Nov-17 15:00N 40°39' W 074°03'3 5.2
2017-Nov-17 14:30N 40°40' W 074°00'0 0.0
2017-Nov-17 14:00N 40°40' W 074°00'0 0.0
2017-Nov-17 13:30N 40°40' W 074°00'1 2.8
2017-Nov-17 13:00N 40°40' W 074°02'1 2.3
2017-Nov-17 12:31N 40°40' W 074°01'0 0.1
2017-Nov-17 12:00N 40°40' W 074°01'3 5.9
2017-Nov-17 11:30N 40°38' W 074°04'0 0.1
2017-Nov-17 11:00N 40°38' W 074°04'2 4.9
2017-Nov-17 10:30N 40°39' W 074°07'4 8.1
2017-Nov-17 10:00N 40°38' W 074°12'2 3.5
2017-Nov-17 09:29N 40°36' W 074°12'1 1.3
2017-Nov-17 08:59N 40°37' W 074°12'3 6.3
2017-Nov-17 08:30N 40°39' W 074°09'3 6.6
2017-Nov-17 08:00N 40°39' W 074°05'2 3.3
2017-Nov-17 07:31N 40°39' W 074°03'0 0.3
2017-Nov-17 07:00N 40°39' W 074°03'2 3.1
2017-Nov-17 06:30N 40°40' W 074°01'0 0.0
2017-Nov-17 05:59N 40°40' W 074°01'0 0.0
2017-Nov-17 05:29N 40°40' W 074°01'0 0.0
2017-Nov-17 05:00N 40°40' W 074°01'0 0.0
2017-Nov-17 04:31N 40°40' W 074°01'0 0.0
2017-Nov-17 04:01N 40°40' W 074°01'1 1.4
2017-Nov-17 03:31N 40°40' W 074°01'1 2.0
2017-Nov-17 03:01N 40°41' W 074°01'4 8.2
2017-Nov-17 02:31N 40°39' W 074°05'0 0.1
2017-Nov-17 02:01N 40°39' W 074°05'1 2.8
2017-Nov-17 01:30N 40°40' W 074°04'1 2.0
2017-Nov-17 01:00N 40°40' W 074°03'0 0.0
2017-Nov-17 00:31N 40°40' W 074°03'0 0.1
2017-Nov-17 00:00N 40°40' W 074°03'2 4.2
2017-Nov-16 23:31N 40°38' W 074°04'0 0.0
2017-Nov-16 23:01N 40°39' W 074°04'0 0.0
2017-Nov-16 22:30N 40°39' W 074°04'0 0.0
2017-Nov-16 22:01N 40°38' W 074°04'0 0.2
2017-Nov-16 21:31N 40°38' W 074°04'0 0.2
2017-Nov-16 21:00N 40°38' W 074°04'0 0.3
2017-Nov-16 20:31N 40°38' W 074°04'0 0.2
2017-Nov-16 20:00N 40°38' W 074°04'0 0.1
2017-Nov-16 19:30N 40°38' W 074°04'0 0.4
2017-Nov-16 19:01N 40°38' W 074°04'0 1.0
2017-Nov-16 18:31N 40°38' W 074°04'1 1.7
2017-Nov-16 18:01N 40°37' W 074°04'0 0.6
2017-Nov-16 17:30N 40°37' W 074°03'0 0.1
2017-Nov-16 17:00N 40°37' W 074°03'3 5.1
2017-Nov-16 16:30N 40°39' W 074°03'1 1.8
2017-Nov-16 16:01N 40°40' W 074°03'2 3.5
2017-Nov-16 15:30N 40°39' W 074°03'3 6.3
2017-Nov-16 15:00N 40°35' W 074°02'4 8.1
2017-Nov-16 14:30N 40°32' W 074°01'4 8.1
2017-Nov-16 14:00N 40°30' W 073°56'40 9.9
2017-Nov-16 09:56N 39°50' W 074°02'410.1
2017-Nov-16 09:30N 39°46' W 074°02'610.2
2017-Nov-16 08:56N 39°40' W 074°06'510.3
2017-Nov-16 08:25N 39°36' W 074°09'58 7.4
2017-Nov-16 00:34N 39°02' W 075°09'210.0
2017-Nov-16 00:25N 39°03' W 075°10'6 9.2
2017-Nov-15 23:48N 39°08' W 075°14'3 9.0
2017-Nov-15 23:30N 39°10' W 075°16'4 8.7
2017-Nov-15 23:00N 39°14' W 075°18'5 9.1
2017-Nov-15 22:30N 39°18' W 075°22'5 9.6
2017-Nov-15 22:00N 39°21' W 075°26'510.4
2017-Nov-15 21:30N 39°25' W 075°31'510.3
2017-Nov-15 21:00N 39°30' W 075°34'611.2
2017-Nov-15 20:30N 39°35' W 075°34'510.6
2017-Nov-15 20:00N 39°40' W 075°32'611.7
2017-Nov-15 19:30N 39°46' W 075°29'611.1
2017-Nov-15 19:00N 39°49' W 075°23'5 9.6
2017-Nov-15 18:31N 39°51' W 075°17'3 6.9
2017-Nov-15 18:00N 39°52' W 075°13'0 0.5
2017-Nov-15 17:30N 39°52' W 075°13'2 4.9
2017-Nov-15 17:01N 39°53' W 075°10'2 3.7
2017-Nov-15 16:30N 39°54' W 075°08'0 0.0
2017-Nov-15 16:00N 39°54' W 075°08'0 0.0
2017-Nov-15 15:31N 39°54' W 075°08'0 0.0
2017-Nov-15 15:00N 39°54' W 075°08'0 0.3
2017-Nov-15 14:30N 39°54' W 075°08'2 4.6
2017-Nov-15 14:00N 39°56' W 075°08'3 5.8
2017-Nov-15 13:31N 39°58' W 075°06'1 2.9
2017-Nov-15 13:00N 39°59' W 075°04'0 0.2
2017-Nov-15 12:30N 39°59' W 075°04'2 3.7
2017-Nov-15 12:00N 39°58' W 075°07'4 7.4
2017-Nov-15 11:30N 39°55' W 075°08'1 2.0
2017-Nov-15 11:01N 39°54' W 075°08'0 0.0
2017-Nov-15 10:30N 39°54' W 075°08'0 0.3
2017-Nov-15 10:00N 39°54' W 075°08'0 0.1
2017-Nov-15 09:30N 39°54' W 075°08'3 5.3
2017-Nov-15 09:01N 39°53' W 075°12'2 4.2
2017-Nov-15 08:31N 39°55' W 075°13'1 1.6
2017-Nov-15 08:00N 39°54' W 075°13'0 0.7
2017-Nov-15 07:30N 39°54' W 075°12'0 0.0
2017-Nov-15 07:00N 39°54' W 075°12'0 0.0
2017-Nov-15 06:30N 39°54' W 075°12'0 0.0
2017-Nov-15 06:00N 39°54' W 075°12'0 0.0
2017-Nov-15 05:30N 39°54' W 075°12'0 0.0
2017-Nov-15 05:00N 39°54' W 075°12'0 0.0
2017-Nov-15 04:30N 39°54' W 075°12'0 0.0
2017-Nov-15 04:00N 39°54' W 075°12'0 0.0
2017-Nov-15 03:30N 39°54' W 075°12'0 0.0
2017-Nov-15 03:00N 39°54' W 075°12'0 0.2
2017-Nov-15 02:30N 39°54' W 075°12'0 0.5
2017-Nov-15 02:01N 39°54' W 075°12'3 6.8
2017-Nov-15 01:31N 39°51' W 075°15'510.2
2017-Nov-15 01:00N 39°50' W 075°22'5 9.4
2017-Nov-15 00:30N 39°48' W 075°27'510.5
2017-Nov-15 00:00N 39°43' W 075°30'0 0.1
2017-Nov-14 23:30N 39°43' W 075°30'4 8.4
2017-Nov-14 23:01N 39°47' W 075°28'4 9.0
2017-Nov-14 22:31N 39°49' W 075°23'5 9.5
2017-Nov-14 22:00N 39°51' W 075°17'510.7
2017-Nov-14 21:30N 39°53' W 075°10'2 4.5
2017-Nov-14 21:00N 39°54' W 075°08'1 1.0
2017-Nov-14 20:30N 39°54' W 075°08'0 0.3
2017-Nov-14 20:00N 39°53' W 075°08'3 6.9
2017-Nov-14 19:30N 39°52' W 075°12'4 7.4
2017-Nov-14 19:00N 39°51' W 075°17'3 6.7
2017-Nov-14 18:30N 39°50' W 075°21'3 5.7
2017-Nov-14 18:00N 39°49' W 075°24'3 6.8
2017-Nov-14 17:31N 39°47' W 075°28'4 7.8
2017-Nov-14 17:00N 39°43' W 075°30'1 1.4
2017-Nov-14 16:30N 39°43' W 075°31'0 0.5
2017-Nov-14 15:53N 39°43' W 075°31'0 0.0
2017-Nov-14 15:29N 39°43' W 075°31'0 0.0
2017-Nov-14 14:59N 39°43' W 075°31'0 0.0
2017-Nov-14 14:29N 39°43' W 075°31'0 0.0
2017-Nov-14 13:59N 39°43' W 075°31'0 0.0
2017-Nov-14 13:29N 39°43' W 075°31'0 0.0
2017-Nov-14 12:59N 39°43' W 075°31'0 0.0
2017-Nov-14 12:29N 39°43' W 075°31'0 0.0
2017-Nov-14 11:59N 39°43' W 075°31'0 0.0
2017-Nov-14 11:29N 39°43' W 075°31'0 0.0
2017-Nov-14 10:59N 39°43' W 075°31'0 0.0
2017-Nov-14 10:26N 39°43' W 075°31'0 0.1
2017-Nov-14 10:00N 39°43' W 075°31'2 3.8
2017-Nov-14 09:31N 39°45' W 075°30'4 8.1
2017-Nov-14 09:00N 39°48' W 075°26'4 8.8
2017-Nov-14 08:31N 39°50' W 075°22'4 8.5
2017-Nov-14 08:00N 39°51' W 075°16'4 8.1
2017-Nov-14 07:31N 39°53' W 075°12'1 1.5
2017-Nov-14 07:00N 39°54' W 075°12'  
Track history (hours):
 
Tides and Currents Weather Stations Pressure Air Temp Water Temp Dewpoint Dewpoint Depression Visibility Wind Speed Wind Dir Waves Ship Positions

Magothy

Owner: Vane Line Bunkering, Inc., Philadelphia, PA. More information available from US FCC via Universal Licensing System and Coast Guard Vessel Documentation Center.

Last reported at 2017-Nov-24 07:00 UTC. Time now 2017-Nov-24 07:26 UTC.
Position N 40°40' W 074°03'.

Length 33 m; draft 5 m.

Type: Towing. MMSI: 367371810.

Date/timePositionNaut miles runAvg speedWind from/ knotsBaromVisibWave heightAir tempDewpointWater temp
2017-Nov-24 07:00N 40°40' W 074°03'1 1.1
2017-Nov-24 06:30N 40°40' W 074°03'2 3.0
2017-Nov-24 06:00N 40°38' W 074°04'3 5.7
2017-Nov-24 05:30N 40°41' W 074°02'1 2.7
2017-Nov-24 05:00N 40°41' W 074°00'1 2.8
2017-Nov-24 04:30N 40°40' W 074°01'1 1.5
2017-Nov-24 04:00N 40°40' W 074°00'3 6.3
2017-Nov-24 03:30N 40°38' W 074°04'1 1.0
2017-Nov-24 03:00N 40°39' W 074°04'2 3.3
2017-Nov-24 02:30N 40°40' W 074°03'0 0.0
2017-Nov-24 02:00N 40°40' W 074°03'0 0.0
2017-Nov-24 01:30N 40°40' W 074°03'0 0.0
2017-Nov-24 01:00N 40°40' W 074°03'0 0.2
2017-Nov-24 00:30N 40°40' W 074°03'4 7.3
2017-Nov-24 00:00N 40°39' W 074°07'3 5.1
2017-Nov-23 23:30N 40°41' W 074°09'0 0.6
2017-Nov-23 23:00N 40°41' W 074°09'0 0.0
2017-Nov-23 22:29N 40°41' W 074°09'2 4.4
2017-Nov-23 22:00N 40°39' W 074°09'2 3.7
2017-Nov-23 21:30N 40°39' W 074°07'0 0.0
2017-Nov-23 21:00N 40°39' W 074°07'1 1.1
2017-Nov-23 20:28N 40°39' W 074°06'0 0.0
2017-Nov-23 20:01N 40°39' W 074°06'0 0.8
2017-Nov-23 19:30N 40°39' W 074°05'0 0.1
2017-Nov-23 19:00N 40°39' W 074°05'0 0.0
2017-Nov-23 18:29N 40°39' W 074°05'1 2.7
2017-Nov-23 17:59N 40°40' W 074°04'0 0.9
2017-Nov-23 17:30N 40°40' W 074°05'0 0.0
2017-Nov-23 16:57N 40°40' W 074°05'0 0.0
2017-Nov-23 16:30N 40°40' W 074°05'0 0.0
2017-Nov-23 16:00N 40°40' W 074°05'2 3.9
2017-Nov-23 15:30N 40°40' W 074°02'1 2.6
2017-Nov-23 15:00N 40°40' W 074°00'0 0.0
2017-Nov-23 14:30N 40°40' W 074°00'0 0.0
2017-Nov-23 14:00N 40°40' W 074°00'0 0.0
2017-Nov-23 13:30N 40°40' W 074°00'0 0.1
2017-Nov-23 13:00N 40°40' W 074°00'0 0.0
2017-Nov-23 12:30N 40°40' W 074°00'0 0.0
2017-Nov-23 12:00N 40°40' W 074°00'0 0.5
2017-Nov-23 11:28N 40°40' W 074°00'0 0.0
2017-Nov-23 10:59N 40°40' W 074°00'0 0.0
2017-Nov-23 10:28N 40°40' W 074°00'0 0.1
2017-Nov-23 09:56N 40°40' W 074°00'0 0.1
2017-Nov-23 09:28N 40°40' W 074°00'0 0.0
2017-Nov-23 08:58N 40°40' W 074°00'0 0.0
2017-Nov-23 08:28N 40°40' W 074°00'0 0.0
2017-Nov-23 07:58N 40°40' W 074°00'0 0.0
2017-Nov-23 07:29N 40°40' W 074°00'0 0.0
2017-Nov-23 06:58N 40°40' W 074°00'0 0.0
2017-Nov-23 06:28N 40°40' W 074°00'0 0.0
2017-Nov-23 05:58N 40°40' W 074°00'0 0.0
2017-Nov-23 05:28N 40°40' W 074°00'0 0.0
2017-Nov-23 04:58N 40°40' W 074°00'0 0.0
2017-Nov-23 04:28N 40°40' W 074°00'0 0.0
2017-Nov-23 03:58N 40°40' W 074°00'0 0.0
2017-Nov-23 03:28N 40°40' W 074°00'0 0.0
2017-Nov-23 02:58N 40°40' W 074°00'0 0.0
2017-Nov-23 02:28N 40°40' W 074°00'1 2.3
2017-Nov-23 02:00N 40°41' W 074°01'1 1.6
2017-Nov-23 01:30N 40°41' W 074°00'0 0.0
2017-Nov-23 01:00N 40°41' W 074°00'0 0.0
2017-Nov-23 00:30N 40°41' W 074°00'1 0.9
2017-Nov-22 23:58N 40°41' W 074°01'1 2.4
2017-Nov-22 23:28N 40°40' W 074°00'0 0.7
2017-Nov-22 22:59N 40°40' W 074°00'0 0.0
2017-Nov-22 22:29N 40°40' W 074°00'0 0.0
2017-Nov-22 21:56N 40°40' W 074°00'0 0.0
2017-Nov-22 21:29N 40°40' W 074°00'0 0.0
2017-Nov-22 20:59N 40°40' W 074°00'0 0.0
2017-Nov-22 20:29N 40°40' W 074°00'0 0.0
2017-Nov-22 19:59N 40°40' W 074°00'0 0.0
2017-Nov-22 19:29N 40°40' W 074°00'  
2017-Nov-18 09:22N 40°50' W 073°47'3 7.2
2017-Nov-18 09:00N 40°48' W 073°50'4 8.0
2017-Nov-18 08:29N 40°47' W 073°55'3 5.9
2017-Nov-18 08:01N 40°45' W 073°58'3 5.8
2017-Nov-18 07:30N 40°42' W 073°59'3 5.4
2017-Nov-18 07:00N 40°41' W 074°02'2 4.9
2017-Nov-18 06:30N 40°39' W 074°03'0 0.1
2017-Nov-18 06:00N 40°38' W 074°03'1 1.3
2017-Nov-18 05:30N 40°39' W 074°04'4 7.1
2017-Nov-18 05:00N 40°39' W 074°08'3 5.3
2017-Nov-18 04:30N 40°38' W 074°12'2 4.1
2017-Nov-18 04:00N 40°36' W 074°12'1 2.0
2017-Nov-18 03:29N 40°35' W 074°13'1 0.1
2017-Nov-17 20:55N 40°36' W 074°12'2 4.6
2017-Nov-17 20:29N 40°38' W 074°12'3 6.6
2017-Nov-17 20:00N 40°39' W 074°08'4 8.9
2017-Nov-17 19:30N 40°39' W 074°02'2 4.0
2017-Nov-17 19:00N 40°40' W 074°00'0 0.1
2017-Nov-17 18:30N 40°40' W 074°00'1 1.8
2017-Nov-17 18:00N 40°40' W 074°01'3 5.8
2017-Nov-17 17:30N 40°40' W 074°05'2 3.4
2017-Nov-17 17:00N 40°40' W 074°03'2 3.4
2017-Nov-17 16:30N 40°40' W 074°05'0 0.0
2017-Nov-17 16:00N 40°40' W 074°05'1 2.6
2017-Nov-17 15:30N 40°39' W 074°05'2 3.4
2017-Nov-17 15:00N 40°39' W 074°03'3 5.2
2017-Nov-17 14:30N 40°40' W 074°00'0 0.0
2017-Nov-17 14:00N 40°40' W 074°00'0 0.0
2017-Nov-17 13:30N 40°40' W 074°00'1 2.8
2017-Nov-17 13:00N 40°40' W 074°02'1 2.3
2017-Nov-17 12:31N 40°40' W 074°01'0 0.1
2017-Nov-17 12:00N 40°40' W 074°01'3 5.9
2017-Nov-17 11:30N 40°38' W 074°04'0 0.1
2017-Nov-17 11:00N 40°38' W 074°04'2 4.9
2017-Nov-17 10:30N 40°39' W 074°07'4 8.1
2017-Nov-17 10:00N 40°38' W 074°12'2 3.5
2017-Nov-17 09:29N 40°36' W 074°12'1 1.3
2017-Nov-17 08:59N 40°37' W 074°12'3 6.3
2017-Nov-17 08:30N 40°39' W 074°09'3 6.6
2017-Nov-17 08:00N 40°39' W 074°05'2 3.3
2017-Nov-17 07:31N 40°39' W 074°03'0 0.3
2017-Nov-17 07:00N 40°39' W 074°03'2 3.1
2017-Nov-17 06:30N 40°40' W 074°01'0 0.0
2017-Nov-17 05:59N 40°40' W 074°01'0 0.0
2017-Nov-17 05:29N 40°40' W 074°01'0 0.0
2017-Nov-17 05:00N 40°40' W 074°01'0 0.0
2017-Nov-17 04:31N 40°40' W 074°01'0 0.0
2017-Nov-17 04:01N 40°40' W 074°01'1 1.4
2017-Nov-17 03:31N 40°40' W 074°01'1 2.0
2017-Nov-17 03:01N 40°41' W 074°01'4 8.2
2017-Nov-17 02:31N 40°39' W 074°05'0 0.1
2017-Nov-17 02:01N 40°39' W 074°05'1 2.8
2017-Nov-17 01:30N 40°40' W 074°04'1 2.0
2017-Nov-17 01:00N 40°40' W 074°03'0 0.0
2017-Nov-17 00:31N 40°40' W 074°03'0 0.1
2017-Nov-17 00:00N 40°40' W 074°03'2 4.2
2017-Nov-16 23:31N 40°38' W 074°04'0 0.0
2017-Nov-16 23:01N 40°39' W 074°04'0 0.0
2017-Nov-16 22:30N 40°39' W 074°04'0 0.0
2017-Nov-16 22:01N 40°38' W 074°04'0 0.2
2017-Nov-16 21:31N 40°38' W 074°04'0 0.2
2017-Nov-16 21:00N 40°38' W 074°04'0 0.3
2017-Nov-16 20:31N 40°38' W 074°04'0 0.2
2017-Nov-16 20:00N 40°38' W 074°04'0 0.1
2017-Nov-16 19:30N 40°38' W 074°04'0 0.4
2017-Nov-16 19:01N 40°38' W 074°04'0 1.0
2017-Nov-16 18:31N 40°38' W 074°04'1 1.7
2017-Nov-16 18:01N 40°37' W 074°04'0 0.6
2017-Nov-16 17:30N 40°37' W 074°03'0 0.1
2017-Nov-16 17:00N 40°37' W 074°03'3 5.1
2017-Nov-16 16:30N 40°39' W 074°03'1 1.8
2017-Nov-16 16:01N 40°40' W 074°03'2 3.5
2017-Nov-16 15:30N 40°39' W 074°03'3 6.3
2017-Nov-16 15:00N 40°35' W 074°02'4 8.1
2017-Nov-16 14:30N 40°32' W 074°01'4 8.1
2017-Nov-16 14:00N 40°30' W 073°56'40 9.9
2017-Nov-16 09:56N 39°50' W 074°02'410.1
2017-Nov-16 09:30N 39°46' W 074°02'610.2
2017-Nov-16 08:56N 39°40' W 074°06'510.3
2017-Nov-16 08:25N 39°36' W 074°09'58 7.4
2017-Nov-16 00:34N 39°02' W 075°09'210.0
2017-Nov-16 00:25N 39°03' W 075°10'6 9.2
2017-Nov-15 23:48N 39°08' W 075°14'3 9.0
2017-Nov-15 23:30N 39°10' W 075°16'4 8.7
2017-Nov-15 23:00N 39°14' W 075°18'5 9.1
2017-Nov-15 22:30N 39°18' W 075°22'5 9.6
2017-Nov-15 22:00N 39°21' W 075°26'510.4
2017-Nov-15 21:30N 39°25' W 075°31'510.3
2017-Nov-15 21:00N 39°30' W 075°34'611.2
2017-Nov-15 20:30N 39°35' W 075°34'510.6
2017-Nov-15 20:00N 39°40' W 075°32'611.7
2017-Nov-15 19:30N 39°46' W 075°29'611.1
2017-Nov-15 19:00N 39°49' W 075°23'5 9.6
2017-Nov-15 18:31N 39°51' W 075°17'3 6.9
2017-Nov-15 18:00N 39°52' W 075°13'0 0.5
2017-Nov-15 17:30N 39°52' W 075°13'2 4.9
2017-Nov-15 17:01N 39°53' W 075°10'2 3.7
2017-Nov-15 16:30N 39°54' W 075°08'0 0.0
2017-Nov-15 16:00N 39°54' W 075°08'0 0.0
2017-Nov-15 15:31N 39°54' W 075°08'0 0.0
2017-Nov-15 15:00N 39°54' W 075°08'0 0.3
2017-Nov-15 14:30N 39°54' W 075°08'2 4.6
2017-Nov-15 14:00N 39°56' W 075°08'3 5.8
2017-Nov-15 13:31N 39°58' W 075°06'1 2.9
2017-Nov-15 13:00N 39°59' W 075°04'0 0.2
2017-Nov-15 12:30N 39°59' W 075°04'2 3.7
2017-Nov-15 12:00N 39°58' W 075°07'4 7.4
2017-Nov-15 11:30N 39°55' W 075°08'1 2.0
2017-Nov-15 11:01N 39°54' W 075°08'0 0.0
2017-Nov-15 10:30N 39°54' W 075°08'0 0.3
2017-Nov-15 10:00N 39°54' W 075°08'0 0.1
2017-Nov-15 09:30N 39°54' W 075°08'3 5.3
2017-Nov-15 09:01N 39°53' W 075°12'2 4.2
2017-Nov-15 08:31N 39°55' W 075°13'1 1.6
2017-Nov-15 08:00N 39°54' W 075°13'0 0.7
2017-Nov-15 07:30N 39°54' W 075°12'0 0.0
2017-Nov-15 07:00N 39°54' W 075°12'0 0.0
2017-Nov-15 06:30N 39°54' W 075°12'0 0.0
2017-Nov-15 06:00N 39°54' W 075°12'0 0.0
2017-Nov-15 05:30N 39°54' W 075°12'0 0.0
2017-Nov-15 05:00N 39°54' W 075°12'0 0.0
2017-Nov-15 04:30N 39°54' W 075°12'0 0.0
2017-Nov-15 04:00N 39°54' W 075°12'0 0.0
2017-Nov-15 03:30N 39°54' W 075°12'0 0.0
2017-Nov-15 03:00N 39°54' W 075°12'0 0.2
2017-Nov-15 02:30N 39°54' W 075°12'0 0.5
2017-Nov-15 02:01N 39°54' W 075°12'3 6.8
2017-Nov-15 01:31N 39°51' W 075°15'510.2
2017-Nov-15 01:00N 39°50' W 075°22'5 9.4
2017-Nov-15 00:30N 39°48' W 075°27'510.5
2017-Nov-15 00:00N 39°43' W 075°30'0 0.1
2017-Nov-14 23:30N 39°43' W 075°30'4 8.4
2017-Nov-14 23:01N 39°47' W 075°28'4 9.0
2017-Nov-14 22:31N 39°49' W 075°23'5 9.5
2017-Nov-14 22:00N 39°51' W 075°17'510.7
2017-Nov-14 21:30N 39°53' W 075°10'2 4.5
2017-Nov-14 21:00N 39°54' W 075°08'1 1.0
2017-Nov-14 20:30N 39°54' W 075°08'0 0.3
2017-Nov-14 20:00N 39°53' W 075°08'3 6.9
2017-Nov-14 19:30N 39°52' W 075°12'4 7.4
2017-Nov-14 19:00N 39°51' W 075°17'3 6.7
2017-Nov-14 18:30N 39°50' W 075°21'3 5.7
2017-Nov-14 18:00N 39°49' W 075°24'3 6.8
2017-Nov-14 17:31N 39°47' W 075°28'4 7.8
2017-Nov-14 17:00N 39°43' W 075°30'1 1.4
2017-Nov-14 16:30N 39°43' W 075°31'0 0.5
2017-Nov-14 15:53N 39°43' W 075°31'0 0.0
2017-Nov-14 15:29N 39°43' W 075°31'0 0.0
2017-Nov-14 14:59N 39°43' W 075°31'0 0.0
2017-Nov-14 14:29N 39°43' W 075°31'0 0.0
2017-Nov-14 13:59N 39°43' W 075°31'0 0.0
2017-Nov-14 13:29N 39°43' W 075°31'0 0.0
2017-Nov-14 12:59N 39°43' W 075°31'0 0.0
2017-Nov-14 12:29N 39°43' W 075°31'0 0.0
2017-Nov-14 11:59N 39°43' W 075°31'0 0.0
2017-Nov-14 11:29N 39°43' W 075°31'0 0.0
2017-Nov-14 10:59N 39°43' W 075°31'0 0.0
2017-Nov-14 10:26N 39°43' W 075°31'0 0.1
2017-Nov-14 10:00N 39°43' W 075°31'2 3.8
2017-Nov-14 09:31N 39°45' W 075°30'4 8.1
2017-Nov-14 09:00N 39°48' W 075°26'4 8.8
2017-Nov-14 08:31N 39°50' W 075°22'4 8.5
2017-Nov-14 08:00N 39°51' W 075°16'4 8.1
2017-Nov-14 07:31N 39°53' W 075°12'1 1.5
2017-Nov-14 07:00N 39°54' W 075°12'  

Dump ship's entire track history